createdAt,value
2018-05-01T00:01:41.169Z,97627.85
2018-05-01T00:04:08.643Z,97631.28
2018-05-01T00:06:36.178Z,97628.65
2018-05-01T00:09:03.649Z,97634.50
2018-05-01T00:11:31.216Z,97646.06
2018-05-01T00:13:58.644Z,97643.22
2018-05-01T00:16:26.119Z,97645.85
2018-05-01T00:18:53.945Z,97649.70
2018-05-01T00:21:21.400Z,97641.16
2018-05-01T00:27:19.735Z,97646.65
2018-05-01T00:29:47.185Z,97649.00
2018-05-01T00:32:14.621Z,97651.16
2018-05-01T00:34:42.058Z,97659.98
2018-05-01T00:37:09.498Z,97657.64
2018-05-01T00:39:36.929Z,97665.34
2018-05-01T00:42:04.399Z,97658.77
2018-05-01T00:44:31.848Z,97653.69
2018-05-01T00:46:59.309Z,97657.49
2018-05-01T00:49:26.751Z,97655.15
2018-05-01T00:51:54.182Z,97644.00
2018-05-01T00:54:21.623Z,97652.95
2018-05-01T00:56:49.065Z,97654.97
2018-05-01T00:59:16.564Z,97651.59
2018-05-01T01:01:44.010Z,97650.56
2018-05-01T01:04:11.442Z,97653.02
2018-05-01T01:06:38.878Z,97661.44
2018-05-01T01:09:06.318Z,97658.34
2018-05-01T01:11:33.803Z,97655.82
2018-05-01T01:14:01.256Z,97660.90
2018-05-01T01:16:28.832Z,97653.44
2018-05-01T01:18:56.249Z,97653.91
2018-05-01T01:21:23.754Z,97662.78
2018-05-01T01:23:51.193Z,97665.62
2018-05-01T01:28:52.525Z,97665.16
2018-05-01T01:31:19.988Z,97673.89
2018-05-01T01:33:47.425Z,97678.84
2018-05-01T01:36:14.330Z,97682.81
2018-05-01T01:38:41.234Z,97689.27
2018-05-01T01:41:08.160Z,97695.48
2018-05-01T01:43:35.064Z,97697.85
2018-05-01T01:46:01.954Z,97702.77
2018-05-01T01:48:28.873Z,97706.68
2018-05-01T01:50:55.759Z,97706.92
2018-05-01T01:53:22.648Z,97721.23
2018-05-01T01:55:49.537Z,97717.78
2018-05-01T01:58:16.440Z,97713.30
2018-05-01T02:00:43.342Z,97722.83
2018-05-01T02:03:10.357Z,97724.52
2018-05-01T02:05:37.262Z,97725.38
2018-05-01T02:08:04.179Z,97730.58
2018-05-01T02:10:31.078Z,97736.25
2018-05-01T02:15:42.405Z,97744.47
2018-05-01T02:18:09.367Z,97755.03
2018-05-01T02:20:36.272Z,97753.66
2018-05-01T02:23:03.168Z,97758.84
2018-05-01T02:25:30.053Z,97765.18
2018-05-01T02:27:56.941Z,97770.19
2018-05-01T02:30:23.851Z,97778.18
2018-05-01T02:32:50.762Z,97778.70
2018-05-01T02:35:17.662Z,97786.38
2018-05-01T02:37:44.576Z,97787.60
2018-05-01T02:40:11.491Z,97785.75
2018-05-01T02:42:38.412Z,97780.29
2018-05-01T02:45:05.309Z,97790.00
2018-05-01T02:47:32.227Z,97788.63
2018-05-01T02:49:59.137Z,97789.59
2018-05-01T02:52:26.122Z,97790.91
2018-05-01T02:54:53.169Z,97791.88
2018-05-01T02:57:20.073Z,97799.73
2018-05-01T02:59:46.964Z,97803.20
2018-05-01T03:02:13.866Z,97809.98
2018-05-01T03:04:40.765Z,97808.41
2018-05-01T03:07:07.665Z,97806.16
2018-05-01T03:09:34.566Z,97802.03
2018-05-01T03:12:01.463Z,97808.84
2018-05-01T03:14:28.388Z,97804.66
2018-05-01T03:16:55.285Z,97801.61
2018-05-01T03:19:22.181Z,97799.91
2018-05-01T03:21:49.094Z,97811.03
2018-05-01T03:24:16.009Z,97806.47
2018-05-01T03:26:42.939Z,97810.89
2018-05-01T03:29:09.832Z,97812.69
2018-05-01T03:31:36.730Z,97812.97
2018-05-01T03:34:03.664Z,97817.97
2018-05-01T03:36:30.576Z,97815.89
2018-05-01T03:38:57.522Z,97823.20
2018-05-01T03:41:24.394Z,97822.28
2018-05-01T03:43:51.305Z,97817.50
2018-05-01T03:46:18.196Z,97815.31
2018-05-01T03:48:45.105Z,97812.04
2018-05-01T03:51:12.026Z,97806.83
2018-05-01T03:53:38.974Z,97811.84
2018-05-01T03:56:05.967Z,97815.34
2018-05-01T03:58:32.810Z,97817.58
2018-05-01T04:00:59.714Z,97826.42
2018-05-01T04:03:26.614Z,97825.95
2018-05-01T04:05:53.535Z,97824.81
2018-05-01T04:08:20.457Z,97832.12
2018-05-01T04:10:47.354Z,97825.02
2018-05-01T04:13:14.248Z,97831.59
2018-05-01T04:15:41.157Z,97837.61
2018-05-01T04:18:08.052Z,97835.33
2018-05-01T04:20:34.953Z,97851.98
2018-05-01T04:23:01.855Z,97857.95
2018-05-01T04:25:28.781Z,97853.91
2018-05-01T04:27:55.692Z,97864.59
2018-05-01T04:30:22.587Z,97868.41
2018-05-01T04:32:49.506Z,97872.82
2018-05-01T04:35:16.426Z,97877.05
2018-05-01T04:37:43.340Z,97882.95
2018-05-01T04:40:10.257Z,97892.80
2018-05-01T04:42:37.354Z,97889.20
2018-05-01T04:45:04.268Z,97899.45
2018-05-01T04:47:31.196Z,97896.63
2018-05-01T04:49:58.101Z,97904.94
2018-05-01T04:52:25.027Z,97900.45
2018-05-01T04:54:51.988Z,97905.20
2018-05-01T04:57:18.889Z,97907.45
2018-05-01T04:59:45.814Z,97912.19
2018-05-01T05:02:12.765Z,97915.15
2018-05-01T05:04:39.693Z,97921.75
2018-05-01T05:07:06.607Z,97927.01
2018-05-01T05:09:33.588Z,97931.59
2018-05-01T05:12:00.469Z,97937.42
2018-05-01T05:14:27.404Z,97937.81
2018-05-01T05:16:54.318Z,97948.23
2018-05-01T05:19:21.281Z,97954.61
2018-05-01T05:21:48.225Z,97948.52
2018-05-01T05:24:15.132Z,97956.00
2018-05-01T05:26:42.037Z,97951.31
2018-05-01T05:29:08.933Z,97955.91
2018-05-01T05:31:35.833Z,97964.17
2018-05-01T05:34:02.737Z,97968.00
2018-05-01T05:36:29.699Z,97973.06
2018-05-01T05:38:56.592Z,97961.75
2018-05-01T05:41:23.511Z,97968.80
2018-05-01T05:43:50.413Z,97964.70
2018-05-01T05:46:17.346Z,97970.36
2018-05-01T05:48:44.261Z,97971.48
2018-05-01T05:51:11.162Z,97981.27
2018-05-01T05:53:38.073Z,97982.34
2018-05-01T05:56:04.960Z,97988.50
2018-05-01T05:58:31.867Z,97989.39
2018-05-01T06:00:58.774Z,97996.11
2018-05-01T06:03:25.702Z,97994.97
2018-05-01T06:05:52.596Z,98001.60
2018-05-01T06:08:19.530Z,98005.29
2018-05-01T06:10:46.439Z,98007.80
2018-05-01T06:13:13.331Z,98011.61
2018-05-01T06:15:40.234Z,98004.77
2018-05-01T06:18:07.168Z,98009.98
2018-05-01T06:20:34.078Z,98014.70
2018-05-01T06:23:01.038Z,98021.29
2018-05-01T06:25:27.943Z,98025.70
2018-05-01T06:27:54.871Z,98034.72
2018-05-01T06:30:21.786Z,98033.35
2018-05-01T06:32:48.705Z,98034.36
2018-05-01T06:35:15.696Z,98042.29
2018-05-01T06:37:42.629Z,98054.55
2018-05-01T06:40:09.576Z,98049.13
2018-05-01T06:42:36.572Z,98052.91
2018-05-01T06:45:03.493Z,98054.77
2018-05-01T06:47:30.397Z,98056.95
2018-05-01T06:49:57.374Z,98055.66
2018-05-01T06:52:24.283Z,98053.53
2018-05-01T06:54:51.211Z,98055.70
2018-05-01T06:57:18.170Z,98051.23
2018-05-01T06:59:45.076Z,98052.67
2018-05-01T07:02:12.117Z,98045.30
2018-05-01T07:04:39.057Z,98055.03
2018-05-01T07:07:05.952Z,98067.13
2018-05-01T07:09:32.869Z,98057.28
2018-05-01T07:11:59.849Z,98055.17
2018-05-01T07:14:26.767Z,98062.30
2018-05-01T07:16:53.679Z,98070.11
2018-05-01T07:19:20.592Z,98063.23
2018-05-01T07:21:47.506Z,98068.98
2018-05-01T07:24:14.413Z,98065.27
2018-05-01T07:26:41.345Z,98059.69
2018-05-01T07:29:08.246Z,98066.11
2018-05-01T07:31:35.229Z,98067.98
2018-05-01T07:34:02.146Z,98063.51
2018-05-01T07:36:29.067Z,98076.91
2018-05-01T07:38:55.984Z,98068.52
2018-05-01T07:41:22.892Z,98075.64
2018-05-01T07:43:49.823Z,98080.30
2018-05-01T07:46:16.754Z,98075.88
2018-05-01T07:48:43.696Z,98087.69
2018-05-01T07:51:10.594Z,98085.20
2018-05-01T07:53:37.532Z,98082.86
2018-05-01T07:56:04.439Z,98084.30
2018-05-01T07:58:31.338Z,98080.96
2018-05-01T08:00:58.251Z,98079.67
2018-05-01T08:03:25.150Z,98078.91
2018-05-01T08:05:52.086Z,98066.77
2018-05-01T08:08:19.010Z,98062.75
2018-05-01T08:10:45.956Z,98057.03
2018-05-01T08:13:12.850Z,98058.64
2018-05-01T08:15:39.758Z,98058.14
2018-05-01T08:18:06.676Z,98071.92
2018-05-01T08:20:33.607Z,98072.84
2018-05-01T08:23:00.845Z,98073.50
2018-05-01T08:25:27.764Z,98072.98
2018-05-01T08:27:54.660Z,98074.67
2018-05-01T08:30:21.577Z,98071.50
2018-05-01T08:32:48.523Z,98065.52
2018-05-01T08:35:15.447Z,98068.54
2018-05-01T08:37:42.355Z,98067.31
2018-05-01T08:40:09.267Z,98071.69
2018-05-01T08:42:36.151Z,98073.36
2018-05-01T08:45:03.072Z,98086.08
2018-05-01T08:47:29.990Z,98086.09
2018-05-01T08:49:56.902Z,98071.05
2018-05-01T08:52:23.806Z,98073.08
2018-05-01T08:54:50.730Z,98079.49
2018-05-01T08:57:17.755Z,98094.64
2018-05-01T08:59:44.641Z,98101.89
2018-05-01T09:02:11.540Z,98099.06
2018-05-01T09:04:38.460Z,98097.79
2018-05-01T09:07:05.363Z,98099.11
2018-05-01T09:09:32.320Z,98108.25
2018-05-01T09:11:59.342Z,98118.52
2018-05-01T09:14:26.349Z,98123.43
2018-05-01T09:16:53.333Z,98124.25
2018-05-01T09:19:20.156Z,98121.94
2018-05-01T09:21:47.059Z,98110.97
2018-05-01T09:24:13.962Z,98114.24
2018-05-01T09:26:40.861Z,98112.06
2018-05-01T09:29:07.777Z,98119.21
2018-05-01T09:31:34.696Z,98131.13
2018-05-01T09:34:01.601Z,98130.23
2018-05-01T09:36:28.570Z,98131.70
2018-05-01T09:38:55.499Z,98130.17
2018-05-01T09:41:22.416Z,98123.39
2018-05-01T09:43:49.326Z,98125.95
2018-05-01T09:46:16.247Z,98127.09
2018-05-01T09:48:43.145Z,98121.79
2018-05-01T09:51:10.053Z,98122.11
2018-05-01T09:53:37.501Z,98119.60
2018-05-01T09:56:04.952Z,98120.27
2018-05-01T09:58:32.461Z,98116.66
2018-05-01T10:00:59.850Z,98123.66
2018-05-01T10:03:27.317Z,98133.75
2018-05-01T10:05:54.759Z,98130.12
2018-05-01T10:08:22.204Z,98128.14
2018-05-01T10:10:49.657Z,98126.73
2018-05-01T10:13:17.161Z,98130.01
2018-05-01T10:15:44.596Z,98127.00
2018-05-01T10:18:12.089Z,98124.22
2018-05-01T10:20:39.549Z,98120.45
2018-05-01T10:23:06.989Z,98129.25
2018-05-01T10:25:34.450Z,98122.47
2018-05-01T10:28:01.927Z,98122.53
2018-05-01T10:30:29.380Z,98116.70
2018-05-01T10:32:56.829Z,98126.39
2018-05-01T10:35:24.363Z,98124.48
2018-05-01T10:37:51.875Z,98122.52
2018-05-01T10:40:19.320Z,98114.05
2018-05-01T10:42:46.769Z,98095.95
2018-05-01T10:45:14.244Z,98102.69
2018-05-01T10:47:41.811Z,98092.45
2018-05-01T10:50:09.250Z,98098.44
2018-05-01T10:52:36.712Z,98108.16
2018-05-01T10:55:04.158Z,98105.91
2018-05-01T10:57:31.647Z,98101.16
2018-05-01T10:59:59.102Z,98097.75
2018-05-01T11:02:26.562Z,98095.72
2018-05-01T11:04:54.105Z,98088.19
2018-05-01T11:07:21.545Z,98098.73
2018-05-01T11:09:48.989Z,98102.39
2018-05-01T11:12:16.446Z,98091.38
2018-05-01T11:14:43.909Z,98093.11
2018-05-01T11:17:11.396Z,98095.04
2018-05-01T11:19:38.824Z,98101.59
2018-05-01T11:22:06.268Z,98105.26
2018-05-01T11:24:33.730Z,98107.98
2018-05-01T11:27:01.176Z,98109.25
2018-05-01T11:29:28.615Z,98110.77
2018-05-01T11:31:56.064Z,98111.31
2018-05-01T11:34:23.513Z,98105.02
2018-05-01T11:36:50.958Z,98106.81
2018-05-01T11:39:18.397Z,98110.03
2018-05-01T11:41:45.824Z,98106.78
2018-05-01T11:44:13.274Z,98107.81
2018-05-01T11:46:40.766Z,98107.95
2018-05-01T11:49:08.210Z,98115.11
2018-05-01T11:51:35.657Z,98128.91
2018-05-01T11:54:03.123Z,98126.20
2018-05-01T11:56:30.551Z,98116.70
2018-05-01T11:58:58.459Z,98111.02
2018-05-01T12:01:25.913Z,98119.19
2018-05-01T12:03:53.360Z,98127.58
2018-05-01T12:06:20.799Z,98128.20
2018-05-01T12:08:48.276Z,98126.98
2018-05-01T12:11:15.722Z,98123.74
2018-05-01T12:13:43.172Z,98112.78
2018-05-01T12:16:10.635Z,98110.73
2018-05-01T12:18:38.147Z,98115.84
2018-05-01T12:21:05.548Z,98115.50
2018-05-01T12:23:32.986Z,98115.32
2018-05-01T12:26:00.422Z,98113.15
2018-05-01T12:28:27.893Z,98109.98
2018-05-01T12:30:55.359Z,98115.72
2018-05-01T12:33:22.853Z,98111.91
2018-05-01T12:35:50.311Z,98114.99
2018-05-01T12:38:17.906Z,98118.63
2018-05-01T12:40:45.360Z,98121.08
2018-05-01T12:43:12.919Z,98115.30
2018-05-01T12:45:40.510Z,98112.47
2018-05-01T12:48:08.035Z,98110.15
2018-05-01T12:50:35.461Z,98108.38
2018-05-01T12:53:02.903Z,98107.22
2018-05-01T12:55:30.366Z,98105.83
2018-05-01T12:57:57.800Z,98111.16
2018-05-01T13:00:25.230Z,98102.48
2018-05-01T13:02:52.698Z,98103.14
2018-05-01T13:05:20.168Z,98101.28
2018-05-01T13:07:47.659Z,98097.39
2018-05-01T13:10:15.130Z,98104.56
2018-05-01T13:12:42.557Z,98103.04
2018-05-01T13:15:09.992Z,98108.38
2018-05-01T13:17:37.450Z,98102.87
2018-05-01T13:20:04.876Z,98083.57
2018-05-01T13:22:32.329Z,98077.38
2018-05-01T13:25:00.277Z,98082.26
2018-05-01T13:27:27.853Z,98075.23
2018-05-01T13:29:55.291Z,98074.93
2018-05-01T13:32:22.731Z,98081.39
2018-05-01T13:34:50.181Z,98074.97
2018-05-01T13:37:17.618Z,98064.91
2018-05-01T13:39:45.086Z,98063.15
2018-05-01T13:42:12.560Z,98059.02
2018-05-01T13:44:40.017Z,98054.27
2018-05-01T13:47:07.473Z,98058.23
2018-05-01T13:49:34.966Z,98065.13
2018-05-01T13:52:02.412Z,98055.28
2018-05-01T13:54:29.967Z,98044.63
2018-05-01T13:56:57.372Z,98036.77
2018-05-01T13:59:24.835Z,98049.06
2018-05-01T14:01:52.292Z,98050.13
2018-05-01T14:04:19.739Z,98047.77
2018-05-01T14:06:47.220Z,98041.64
2018-05-01T14:09:14.684Z,98037.14
2018-05-01T14:11:42.162Z,98050.77
2018-05-01T14:14:09.609Z,98052.91
2018-05-01T14:16:37.063Z,98050.38
2018-05-01T14:19:04.503Z,98043.52
2018-05-01T14:21:32.026Z,98051.45
2018-05-01T14:23:59.454Z,98048.16
2018-05-01T14:26:26.897Z,98048.34
2018-05-01T14:28:54.341Z,98053.72
2018-05-01T14:31:21.779Z,98038.12
2018-05-01T14:33:49.246Z,98034.03
2018-05-01T14:36:16.668Z,98034.59
2018-05-01T14:38:44.095Z,98025.27
2018-05-01T14:41:11.542Z,98033.01
2018-05-01T14:43:39.013Z,98030.34
2018-05-01T14:46:06.471Z,98029.50
2018-05-01T14:48:33.912Z,98035.46
2018-05-01T14:51:05.473Z,98029.30
2018-05-01T14:53:32.932Z,98036.40
2018-05-01T14:56:00.377Z,98040.42
2018-05-01T14:58:27.819Z,98027.72
2018-05-01T15:00:56.338Z,98025.23
2018-05-01T15:03:23.777Z,98031.34
2018-05-01T15:05:51.225Z,98026.61
2018-05-01T15:08:18.673Z,98022.19
2018-05-01T15:10:46.136Z,98018.94
2018-05-01T15:13:13.573Z,98029.13
2018-05-01T15:15:41.037Z,98028.05
2018-05-01T15:18:08.482Z,98032.69
2018-05-01T15:20:35.905Z,98019.25
2018-05-01T15:23:03.353Z,98016.91
2018-05-01T15:25:30.857Z,98022.00
2018-05-01T15:27:58.263Z,98010.14
2018-05-01T15:30:25.813Z,98019.09
2018-05-01T15:32:53.153Z,98024.23
2018-05-01T15:35:20.595Z,98019.53
2018-05-01T15:37:48.033Z,98024.63
2018-05-01T15:40:15.465Z,98024.16
2018-05-01T15:42:42.920Z,98026.56
2018-05-01T15:45:10.376Z,98019.87
2018-05-01T15:47:37.835Z,98034.20
2018-05-01T15:50:05.275Z,98023.51
2018-05-01T15:52:32.737Z,98019.25
2018-05-01T15:55:00.184Z,98018.84
2018-05-01T15:57:27.637Z,98025.02
2018-05-01T15:59:55.069Z,98024.53
2018-05-01T16:02:22.517Z,98020.17
2018-05-01T16:04:49.961Z,98020.06
2018-05-01T16:07:17.411Z,98024.14
2018-05-01T16:09:44.859Z,98018.23
2018-05-01T16:12:12.306Z,98010.85
2018-05-01T16:14:39.773Z,98013.22
2018-05-01T16:17:07.299Z,98011.25
2018-05-01T16:19:34.759Z,98005.00
2018-05-01T16:22:02.211Z,98009.61
2018-05-01T16:24:29.641Z,98008.92
2018-05-01T16:26:57.081Z,98004.49
2018-05-01T16:29:24.590Z,97995.49
2018-05-01T16:31:52.016Z,98001.98
2018-05-01T16:34:19.476Z,97993.77
2018-05-01T16:36:46.913Z,97999.50
2018-05-01T16:39:14.359Z,97998.63
2018-05-01T16:41:41.793Z,97994.99
2018-05-01T16:44:09.234Z,98006.71
2018-05-01T16:46:36.683Z,98001.88
2018-05-01T16:49:04.158Z,98003.87
2018-05-01T16:51:31.669Z,97995.23
2018-05-01T16:53:59.107Z,98003.87
2018-05-01T16:56:26.569Z,97990.33
2018-05-01T16:58:54.062Z,98002.63
2018-05-01T17:01:21.503Z,98006.77
2018-05-01T17:03:48.999Z,98009.58
2018-05-01T17:06:16.505Z,98013.03
2018-05-01T17:08:44.030Z,98017.99
2018-05-01T17:11:11.469Z,98013.61
2018-05-01T17:13:39.077Z,98022.34
2018-05-01T17:16:06.536Z,98020.53
2018-05-01T17:18:33.987Z,98016.14
2018-05-01T17:21:01.441Z,98012.55
2018-05-01T17:23:28.877Z,98013.66
2018-05-01T17:26:06.265Z,98012.61
2018-05-01T17:28:33.699Z,98014.61
2018-05-01T17:31:01.279Z,98018.86
2018-05-01T17:33:28.775Z,98016.58
2018-05-01T17:35:56.239Z,98019.33
2018-05-01T17:38:23.722Z,98020.80
2018-05-01T17:40:51.173Z,98028.19
2018-05-01T17:43:18.650Z,98029.73
2018-05-01T17:45:46.127Z,98026.13
2018-05-01T17:48:13.581Z,98027.34
2018-05-01T17:50:41.043Z,98030.46
2018-05-01T17:53:08.497Z,98033.83
2018-05-01T17:55:35.955Z,98037.66
2018-05-01T17:58:03.410Z,98034.87
2018-05-01T18:00:30.893Z,98039.80
2018-05-01T18:02:58.446Z,98046.44
2018-05-01T18:05:26.077Z,98050.92
2018-05-01T18:07:53.641Z,98054.45
2018-05-01T18:10:21.282Z,98053.79
2018-05-01T18:12:48.951Z,98048.11
2018-05-01T18:15:17.117Z,98051.30
2018-05-01T18:17:44.585Z,98062.16
2018-05-01T18:20:12.045Z,98064.89
2018-05-01T18:22:41.630Z,98061.11
2018-05-01T18:25:11.753Z,98063.47
2018-05-01T18:27:40.419Z,98062.67
2018-05-01T18:30:09.906Z,98060.69
2018-05-01T18:32:37.449Z,98064.81
2018-05-01T18:35:04.996Z,98071.48
2018-05-01T18:37:32.452Z,98079.50
2018-05-01T18:39:59.905Z,98078.66
2018-05-01T18:42:27.443Z,98078.03
2018-05-01T18:44:54.903Z,98082.78
2018-05-01T18:47:22.545Z,98081.23
2018-05-01T18:49:50.007Z,98083.48
2018-05-01T18:52:17.479Z,98080.48
2018-05-01T18:54:44.946Z,98091.77
2018-05-01T18:57:12.414Z,98099.97
2018-05-01T18:59:39.949Z,98093.61
2018-05-01T19:02:07.862Z,98094.42
2018-05-01T19:04:35.362Z,98091.10
2018-05-01T19:07:02.810Z,98080.87
2018-05-01T19:09:30.282Z,98082.02
2018-05-01T19:11:57.726Z,98077.86
2018-05-01T19:14:25.301Z,98085.44
2018-05-01T19:16:52.752Z,98084.12
2018-05-01T19:19:20.206Z,98090.88
2018-05-01T19:21:47.749Z,98101.94
2018-05-01T19:24:15.210Z,98105.64
2018-05-01T19:26:42.998Z,98115.55
2018-05-01T19:29:10.685Z,98125.99
2018-05-01T19:31:38.421Z,98131.02
2018-05-01T19:34:06.028Z,98123.97
2018-05-01T19:36:33.482Z,98124.70
2018-05-01T19:39:01.047Z,98118.50
2018-05-01T19:41:28.853Z,98117.75
2018-05-01T19:43:56.353Z,98129.31
2018-05-01T19:46:24.039Z,98124.55
2018-05-01T19:48:51.477Z,98123.25
2018-05-01T19:51:19.210Z,98119.72
2018-05-01T19:53:46.653Z,98118.36
2018-05-01T19:56:14.102Z,98116.12
2018-05-01T19:58:41.566Z,98112.73
2018-05-01T20:01:09.041Z,98118.71
2018-05-01T20:03:36.500Z,98120.70
2018-05-01T20:06:04.080Z,98109.89
2018-05-01T20:08:31.544Z,98119.64
2018-05-01T20:10:58.988Z,98109.77
2018-05-01T20:13:26.436Z,98115.38
2018-05-01T20:15:53.898Z,98115.92
2018-05-01T20:18:21.369Z,98117.16
2018-05-01T20:20:48.830Z,98123.29
2018-05-01T20:23:16.279Z,98125.93
2018-05-01T20:25:43.707Z,98127.27
2018-05-01T20:28:11.178Z,98130.66
2018-05-01T20:30:38.642Z,98132.64
2018-05-01T20:33:06.204Z,98127.88
2018-05-01T20:35:33.642Z,98125.81
2018-05-01T20:38:01.089Z,98133.84
2018-05-01T20:40:28.591Z,98131.00
2018-05-01T20:42:56.028Z,98125.34
2018-05-01T20:45:23.491Z,98129.78
2018-05-01T20:47:51.039Z,98131.97
2018-05-01T20:50:18.510Z,98125.44
2018-05-01T20:52:45.986Z,98129.67
2018-05-01T20:55:13.455Z,98126.48
2018-05-01T20:57:40.931Z,98134.87
2018-05-01T21:00:08.397Z,98131.84
2018-05-01T21:02:35.905Z,98125.50
2018-05-01T21:05:03.379Z,98120.86
2018-05-01T21:07:30.832Z,98119.81
2018-05-01T21:09:58.348Z,98128.08
2018-05-01T21:12:25.786Z,98131.66
2018-05-01T21:14:53.235Z,98131.27
2018-05-01T21:17:20.665Z,98130.67
2018-05-01T21:19:48.100Z,98124.55
2018-05-01T21:22:15.653Z,98124.47
2018-05-01T21:24:43.096Z,98125.42
2018-05-01T21:27:11.679Z,98121.53
2018-05-01T21:29:39.117Z,98121.20
2018-05-01T21:32:06.714Z,98117.98
2018-05-01T21:34:34.313Z,98124.77
2018-05-01T21:37:02.121Z,98114.16
2018-05-01T21:39:30.190Z,98121.29
2018-05-01T21:41:57.629Z,98123.54
2018-05-01T21:44:25.119Z,98128.98
2018-05-01T21:46:52.569Z,98131.50
2018-05-01T21:49:20.041Z,98128.31
2018-05-01T21:51:47.553Z,98131.16
2018-05-01T21:54:15.019Z,98130.62
2018-05-01T21:56:42.470Z,98133.80
2018-05-01T21:59:09.941Z,98136.45
2018-05-01T22:01:37.377Z,98124.76
2018-05-01T22:04:04.940Z,98132.20
2018-05-01T22:06:32.611Z,98131.69
2018-05-01T22:09:00.072Z,98124.95
2018-05-01T22:11:27.754Z,98120.05
2018-05-01T22:13:55.221Z,98128.11
2018-05-01T22:16:22.717Z,98115.30
2018-05-01T22:18:50.166Z,98127.50
2018-05-01T22:21:17.732Z,98126.04
2018-05-01T22:23:45.245Z,98125.63
2018-05-01T22:26:12.703Z,98126.03
2018-05-01T22:28:40.196Z,98127.14
2018-05-01T22:31:07.586Z,98124.91
2018-05-01T22:33:35.038Z,98123.25
2018-05-01T22:36:02.685Z,98124.50
2018-05-01T22:38:30.122Z,98125.79
2018-05-01T22:40:57.569Z,98129.00
2018-05-01T22:43:25.418Z,98126.17
2018-05-01T22:45:53.032Z,98122.34
2018-05-01T22:48:20.514Z,98120.62
2018-05-01T22:50:47.989Z,98117.16
2018-05-01T22:53:15.439Z,98121.00
2018-05-01T22:55:42.882Z,98119.94
2018-05-01T22:58:10.381Z,98117.69
2018-05-01T23:00:37.820Z,98108.94
2018-05-01T23:03:05.287Z,98116.81
2018-05-01T23:05:32.845Z,98108.35
2018-05-01T23:08:00.297Z,98108.33
2018-05-01T23:10:27.747Z,98099.53
2018-05-01T23:12:55.208Z,98103.12
2018-05-01T23:15:22.694Z,98100.78
2018-05-01T23:17:50.137Z,98098.26
2018-05-01T23:20:17.673Z,98097.05
2018-05-01T23:22:45.115Z,98099.92
2018-05-01T23:25:12.566Z,98098.17
2018-05-01T23:27:40.039Z,98101.70
2018-05-01T23:30:07.468Z,98103.45
2018-05-01T23:32:34.910Z,98095.98
2018-05-01T23:35:02.350Z,98100.70
2018-05-01T23:37:29.810Z,98110.02
2018-05-01T23:39:57.258Z,98114.62
2018-05-01T23:42:24.715Z,98125.34
2018-05-01T23:44:52.169Z,98127.33
2018-05-01T23:47:19.658Z,98133.78
2018-05-01T23:49:47.094Z,98125.93
2018-05-01T23:52:14.547Z,98112.95
2018-05-01T23:54:42.142Z,98112.48
2018-05-01T23:57:09.610Z,98118.30
2018-05-01T23:59:37.085Z,98115.53
